• Join FlightAware (Why Join?)
  • Login
  • US Flag 
06:22PM EST


 

Airport Tracker/Info


-or-


 

Live Flight TrackerFlight Track Log ✈ DAL6044 ✈ 30-Apr-2013 ✈ KCLE - KLGA

Flight Track Log - Related Links

Times and Time Zones

All times are in EDT time to prevent confusion due to time zone crossing. See the DAL6044 flight status page for this flight to view local times or setup timezone preferences in your user account.

Time Position Orientation Groundspeed Altitude Reporting Facility
EDT Latitude Longitude Course Direction KTS MPH feet Rate Location/Type
07:20PM 41.3939 -81.8839 105° East 177 204 2,000  Level Cleveland Center
07:21PM 41.4156 -81.9981 284° West 239 275 5,900 2,700 Climbing Cleveland Center
07:22PM 41.4722 -81.9578 28° Northeast 167 192 8,900 2,400 Climbing Cleveland Center
07:23PM 41.7354 -81.5146 37° Northeast  Level FlightAware Approximate
07:23PM 41.5189 -81.8894 48° Northeast 191 220 10,800  Level Cleveland Center
07:24PM 41.8199 -81.4302 37° Northeast  Level FlightAware Approximate
07:24PM 41.5783 -81.8017 48° Northeast 254 292 12,400  Level Cleveland Center
07:25PM 41.8168 -81.3008 105° East  Level FlightAware Approximate
07:25PM 41.5942 -81.6714 81° East 307 353 14,000  Level Cleveland Center
07:26PM 41.5808 -81.5297 97° East 345 397 15,500 1,500 Climbing Cleveland Center
07:27PM 41.5675 -81.3742 96° East 376 433 17,100 1,440 Climbing Cleveland Center
07:28PM 41.5517 -81.2269 98° East 392 451 18,400 1,380 Climbing Cleveland Center
07:29PM 41.5378 -81.0769 97° East 402 463 19,900 1,500 Climbing Cleveland Center
07:30PM 41.5217 -80.9242 98° East 410 472 21,500 1,500 Climbing Cleveland Center
07:31PM 41.5075 -80.7661 97° East 415 478 23,000 1,500 Climbing Cleveland Center
07:32PM 41.4931 -80.6081 97° East 420 483 24,500 1,500 Climbing Cleveland Center
07:33PM 41.4764 -80.4556 98° East 426 490 26,000 2,220 Climbing Cleveland Center
07:34PM 41.4614 -80.3144 98° East 431 496 29,000 1,080 Climbing Cleveland Center
07:35PM 41.4464 -80.1594 97° East 426 490 28,200  Descending Cleveland Center
07:36PM 41.4269 -79.9878 99° East 426 490 29,000 360 Climbing Cleveland Center
07:37PM 41.4092 -79.8247 98° East 432 497 29,000  Level Cleveland Center
07:38PM 41.3914 -79.6586 98° East 438 504 29,000  Level Cleveland Center
07:39PM 41.3756 -79.5067 98° East 450 518 29,000  Level Cleveland Center
07:40PM 41.3572 -79.3411 98° East 455 524 29,000  Level Cleveland Center
07:41PM 41.3361 -79.1589 99° East 455 524 29,000  Level Cleveland Center
07:42PM 41.3172 -78.9933 99° East 450 518 29,000  Level Cleveland Center
07:43PM 41.3006 -78.8447 98° East 450 518 29,000  Level Cleveland Center
07:44PM 41.2814 -78.6792 99° East 450 518 29,000  Level Cleveland Center
07:46PM 41.2400 -78.3483 99° East 450 518 29,000  Level New York Center
07:47PM 41.2192 -78.1831 99° East 455 524 29,000  Level New York Center
07:48PM 41.1983 -78.0153 99° East 455 524 29,000  Level New York Center
07:49PM 41.1769 -77.8503 100° East 455 524 29,000  Level New York Center
07:50PM 41.1531 -77.6881 101° East 455 524 29,000  Level New York Center
07:51PM 41.1272 -77.5256 102° East 455 524 29,000  Level New York Center
07:52PM 41.1008 -77.3631 102° East 455 524 29,000  Level New York Center
07:53PM 41.0775 -77.2178 102° East 455 524 29,000  Level New York Center
07:54PM 41.0508 -77.0556 102° East 455 524 29,000 -720 Level New York Center
07:55PM 41.0261 -76.8936 101° East 455 524 27,600 -1,500 Descending New York Center
07:56PM 40.9989 -76.7289 102° East 455 524 26,000 -1,920 Descending New York Center
07:57PM 40.9719 -76.5617 102° East 455 524 23,800 -2,640 Descending New York Center
07:58PM 40.9439 -76.4081 104° East 449 517 20,900 -3,000 Descending New York Center
07:59PM 40.9203 -76.2414 101° East 425 489 18,000 -2,220 Descending New York Center
08:00PM 40.8872 -76.1014 107° East 405 466 16,500 -1,800 Descending New York Center
08:01PM 40.8536 -75.9644 108° East 394 453 14,400 -1,800 Descending New York Center
08:02PM 40.8219 -75.8331 108° East 384 442 13,000 -720 Descending New York Center
08:03PM 40.7897 -75.7047 108° East 377 434 13,000  Level New York Center
08:04PM 40.7558 -75.5706 108° East 377 434 13,000 -60 Level New York Center
08:05PM 40.7233 -75.4397 108° East 377 434 12,900 -780 Descending New York Center
08:06PM 40.6975 -75.3039 104° East 377 434 11,500 -1,200 Descending New York Center
08:07PM 40.6711 -75.1761 105° East 365 420 10,500 -780 Descending New York Center
08:08PM 40.6181 -75.0853 128° Southeast 354 407 10,000 -300 Descending New York Center
08:09PM 40.5614 -74.9861 127° Southeast 347 399 9,900 -60 Descending New York Center
08:10PM 40.5275 -74.8803 113° Southeast 302 348 9,900  Level New York Center
08:11PM 40.4869 -74.7906 121° Southeast 282 325 10,000 -480 Climbing New York Center
08:12PM 40.4525 -74.7011 117° Southeast 275 316 9,000 -480 Descending New York Center
08:13PM 40.4333 -74.6000 104° East 281 323 9,000  Level New York TRACON
08:14PM 40.4333 -74.5000 90° East 277 319 9,000 -540 Level New York TRACON
08:15PM 40.4167 -74.4000 102° East 276 318 8,000 -960 Descending New York TRACON
08:16PM 40.4000 -74.3000 102° East 265 305 7,100 -540 Descending New York TRACON
08:17PM 40.4500 -74.2167 52° Northeast 267 307 7,000 -60 Descending New York TRACON
08:18PM 40.4833 -74.1333 62° Northeast 273 314 7,000 -300 Level New York TRACON
08:19PM 40.5500 -74.1000 21° North 265 305 6,500 -780 Descending New York TRACON
08:20PM 40.6167 -74.0833 11° North 258 297 5,500 -1,020 Descending New York TRACON
08:22PM 40.7000 -74.0333 24° Northeast 260 299 4,400 -720 Descending New York TRACON
08:23PM 40.7667 -74.0167 11° North 225 259 4,000 -660 Descending New York TRACON
08:24PM 40.8167 -73.9833 27° Northeast 201 231 3,100 -540 Descending New York TRACON
08:25PM 40.8667 -73.9500 27° Northeast 187 215 3,000 -180 Descending New York TRACON
08:26PM 40.9000 -73.9000 49° Northeast 191 220 2,800 -480 Descending New York TRACON
08:27PM 40.9000 -73.8333 90° East 187 215 2,100 -720 Descending New York TRACON